This is the latest recevied weather packets stored in our database for station/object W6UA-13. If no packets are shown the sender has not sent any weather packets the latest 10 day(s).
| Time | Temp. | Humidity | Pressure | Rain* | Wind** | Luminosity | Snow |
|---|---|---|---|---|---|---|---|
| 1777532691 | 11.67° C | 85% | 1015.3 hPa | 0 mm | - | 0 W/m² | - |
| 1777531791 | 12.22° C | 85% | 1015.4 hPa | 0 mm | - | 0 W/m² | - |
| 1777530891 | 12.22° C | 84% | 1015.6 hPa | 0 mm | - | 0 W/m² | - |
| 1777529991 | 12.22° C | 84% | 1015.8 hPa | 0 mm | - | 0 W/m² | - |
| 1777529091 | 12.22° C | 84% | 1015.8 hPa | 0 mm | - | 0 W/m² | - |
| 1777528191 | 12.78° C | 84% | 1015.8 hPa | 0 mm | - | 0 W/m² | - |
| 1777527291 | 12.78° C | 84% | 1016.1 hPa | 0 mm | - | 0 W/m² | - |
| 1777526391 | 12.78° C | 83% | 1016.3 hPa | 0 mm | - | 0 W/m² | - |
| 1777525491 | 12.78° C | 83% | 1016.4 hPa | 0 mm | - | 0 W/m² | - |
| 1777524591 | 12.78° C | 82% | 1016.4 hPa | 0 mm | - | 0 W/m² | - |
| 1777523691 | 13.33° C | 82% | 1016.3 hPa | 0 mm | - | 0 W/m² | - |
| 1777522791 | 13.33° C | 82% | 1016.2 hPa | 0 mm | - | 0 W/m² | - |
| 1777521891 | 13.33° C | 81% | 1016.1 hPa | 0 mm | - | 0 W/m² | - |
| 1777520991 | 13.33° C | 80% | 1015.9 hPa | 0 mm | - | 0 W/m² | - |
| 1777520091 | 13.89° C | 79% | 1015.9 hPa | 0 mm | - | 0 W/m² | - |
| 1777519191 | 14.44° C | 77% | 1015.9 hPa | 0 mm | - | 0 W/m² | - |
| 1777518291 | 14.44° C | 75% | 1015.9 hPa | 0 mm | - | 0 W/m² | - |
| 1777517391 | 15° C | 73% | 1015.6 hPa | 0 mm | - | 0 W/m² | - |
| 1777516491 | 15.56° C | 71% | 1015.5 hPa | 0 mm | - | 12 W/m² | - |
| 1777515591 | 16.11° C | 68% | 1015.4 hPa | 0 mm | - | 23 W/m² | - |
| 1777514691 | 17.22° C | 63% | 1015.6 hPa | 0 mm | - | 60 W/m² | - |
| 1777513791 | 17.78° C | 60% | 1015.5 hPa | 0 mm | - | 120 W/m² | - |
| 1777512891 | 18.89° C | 59% | 1015.7 hPa | 0 mm | - | 165 W/m² | - |
| 1777511991 | 19.44° C | 58% | 1015.8 hPa | 0 mm | - | 179 W/m² | - |
| 1777511091 | 20° C | 56% | 1015.7 hPa | 0 mm | - | 188 W/m² | - |
* Rain latest hour (hover to see other rain measurements)
** Current wind speed in m/s (hover to see current wind gust speed)